Time;durP1;ratioP1;P1;durP2;ratioP2;P2;SDS_P1;SDS_P2;PMS_P1;PMS_P2;Temp;Humidity;BMP_temperature;BMP_pressure;BME280_temperature;BME280_humidity;BME280_pressure;Samples;Min_cycle;Max_cycle;Signal;HPM_P1;HPM_P2
2021/08/19 00:01:00;;;;;;;1.02;0.47;;;21.60;65.60;;;;;;2269684;54;20986;-84
2021/08/19 00:03:27;;;;;;;1.30;0.35;;;21.60;65.70;;;;;;2254315;55;21134;-85
2021/08/19 00:05:53;;;;;;;0.62;0.30;;;21.60;65.70;;;;;;2473991;55;21748;-82
2021/08/19 00:08:19;;;;;;;2.10;0.60;;;21.60;65.70;;;;;;2486900;55;20998;-84
2021/08/19 00:10:46;;;;;;;1.80;0.50;;;21.60;65.80;;;;;;2239416;55;21917;-84
2021/08/19 00:13:12;;;;;;;1.77;0.50;;;21.60;65.80;;;;;;2459422;55;20944;-83
2021/08/19 00:15:38;;;;;;;1.40;0.80;;;21.60;65.70;;;;;;2459334;55;20928;-84
2021/08/19 00:18:04;;;;;;;0.50;0.30;;;21.60;66.50;;;;;;2485939;55;20970;-83
2021/08/19 00:20:32;;;;;;;1.08;0.50;;;21.60;65.80;;;;;;2458198;55;20984;-84
2021/08/19 00:22:58;;;;;;;1.90;0.70;;;21.60;65.80;;;;;;2237665;55;21020;-83
2021/08/19 00:25:25;;;;;;;0.88;0.40;;;21.60;65.80;;;;;;2459263;55;21554;-83
2021/08/19 00:27:52;;;;;;;0.95;0.40;;;21.60;65.80;;;;;;2464831;55;21744;-83
2021/08/19 00:30:18;;;;;;;1.50;0.55;;;21.40;65.60;;;;;;2483611;55;21033;-85
2021/08/19 00:32:45;;;;;;;1.02;0.28;;;21.60;65.80;;;;;;2459419;55;21016;-83
2021/08/19 00:35:11;;;;;;;1.20;0.43;;;21.60;65.80;;;;;;2237812;55;20932;-83
2021/08/19 00:37:37;;;;;;;0.57;0.28;;;21.60;65.70;;;;;;2271033;55;20962;-84
2021/08/19 00:40:06;;;;;;;0.70;0.40;;;21.50;65.60;;;;;;2267131;55;20974;-84
2021/08/19 00:42:32;;;;;;;0.62;0.25;;;21.60;65.60;;;;;;2439658;55;20980;-83
2021/08/19 00:44:59;;;;;;;1.15;0.50;;;21.50;65.50;;;;;;2459964;55;21007;-84
2021/08/19 00:47:31;;;;;;;2.00;0.40;;;21.50;65.50;;;;;;2490293;55;21102;-85
2021/08/19 00:50:00;;;;;;;;;;;21.50;65.40;;;;;;2494072;55;20944;-86
2021/08/19 00:52:27;;;;;;;0.70;0.30;;;21.60;65.90;;;;;;2460028;55;20103;-85
2021/08/19 00:54:54;;;;;;;1.35;0.50;;;21.60;65.70;;;;;;2459905;55;20940;-82
2021/08/19 00:57:21;;;;;;;1.08;0.40;;;21.50;65.60;;;;;;2463678;55;20957;-83
2021/08/19 00:59:48;;;;;;;1.12;0.50;;;21.50;65.70;;;;;;2272236;55;21029;-83
2021/08/19 01:02:14;;;;;;;1.30;0.50;;;21.50;65.70;;;;;;2484917;55;20990;-86
2021/08/19 01:04:40;;;;;;;0.55;0.30;;;21.50;65.60;;;;;;2463938;55;20972;-82
2021/08/19 01:07:08;;;;;;;1.48;0.37;;;21.50;65.60;;;;;;2489969;55;20957;-81
2021/08/19 01:09:34;;;;;;;0.62;0.40;;;21.50;65.60;;;;;;2464653;55;21053;-82
2021/08/19 01:12:02;;;;;;;1.48;0.50;;;21.40;65.50;;;;;;2460511;55;20942;-83
2021/08/19 01:14:29;;;;;;;1.02;0.50;;;21.50;65.60;;;;;;2237894;55;21054;-82
2021/08/19 01:16:55;;;;;;;1.17;0.50;;;21.40;65.50;;;;;;2460354;55;20983;-81
2021/08/19 01:19:22;;;;;;;1.25;0.43;;;21.40;65.50;;;;;;2485771;54;20954;-85
2021/08/19 01:21:51;;;;;;;1.17;0.45;;;21.40;65.50;;;;;;2476069;55;21500;-87
2021/08/19 01:24:18;;;;;;;1.35;0.37;;;21.50;65.60;;;;;;2254451;55;21012;-86
2021/08/19 01:26:44;;;;;;;1.25;0.40;;;21.40;65.60;;;;;;2475817;55;21010;-84
2021/08/19 01:29:10;;;;;;;1.05;0.47;;;21.40;65.60;;;;;;2472790;55;20972;-83
2021/08/19 01:31:37;;;;;;;0.70;0.40;;;21.40;65.60;;;;;;2253811;55;20969;-87
2021/08/19 01:34:04;;;;;;;1.00;0.50;;;21.50;65.70;;;;;;2258045;55;21646;-86
2021/08/19 01:36:30;;;;;;;0.80;0.40;;;21.40;65.60;;;;;;2267036;55;21092;-85
2021/08/19 01:38:56;;;;;;;2.12;0.30;;;21.40;65.60;;;;;;2271139;55;20994;-85
2021/08/19 01:41:23;;;;;;;0.43;0.32;;;21.40;65.60;;;;;;2245724;55;21819;-85
2021/08/19 01:43:52;;;;;;;2.15;0.40;;;21.40;65.60;;;;;;2259645;55;20959;-85
2021/08/19 01:46:19;;;;;;;0.57;0.30;;;21.40;65.50;;;;;;2460797;55;20972;-87
2021/08/19 01:48:49;;;;;;;1.17;0.50;;;21.40;65.60;;;;;;2459556;55;20948;-87
2021/08/19 01:51:18;;;;;;;1.55;0.47;;;21.40;65.60;;;;;;2465458;55;21029;-84
2021/08/19 01:53:54;;;;;;;1.17;0.50;;;21.40;65.50;;;;;;2465268;55;21018;-83
2021/08/19 01:56:20;;;;;;;0.57;0.37;;;21.40;65.40;;;;;;2459321;55;20956;-86
2021/08/19 01:58:47;;;;;;;1.62;0.43;;;21.40;65.60;;;;;;2237902;55;20948;-85
2021/08/19 02:01:20;;;;;;;1.20;0.50;;;21.40;65.60;;;;;;2244021;55;20965;-84
2021/08/19 02:03:48;;;;;;;1.95;0.93;;;21.30;65.40;;;;;;2443991;55;21012;-86
2021/08/19 02:06:14;;;;;;;3.65;0.45;;;21.30;65.60;;;;;;2224125;55;20980;-82
2021/08/19 02:08:40;;;;;;;0.88;0.30;;;21.30;65.60;;;;;;2459493;55;21470;-83
2021/08/19 02:11:07;;;;;;;1.30;0.65;;;21.30;65.70;;;;;;2459859;55;20971;-87
2021/08/19 02:13:33;;;;;;;1.27;0.47;;;21.30;65.70;;;;;;2237533;55;21003;-85
2021/08/19 02:16:00;;;;;;;0.85;0.32;;;21.30;65.80;;;;;;2459678;55;20983;-86
2021/08/19 02:18:26;;;;;;;1.08;0.30;;;21.30;65.80;;;;;;2459324;55;20968;-84
2021/08/19 02:20:52;;;;;;;0.90;0.40;;;21.30;65.80;;;;;;2270179;55;20938;-85
2021/08/19 02:23:18;;;;;;;1.02;0.40;;;21.30;65.80;;;;;;2249366;55;21914;-84
2021/08/19 02:25:44;;;;;;;1.42;0.50;;;21.30;65.90;;;;;;2483795;55;20956;-85
2021/08/19 02:28:11;;;;;;;1.30;0.50;;;21.20;65.70;;;;;;2266065;55;20960;-86
2021/08/19 02:30:37;;;;;;;0.93;0.40;;;21.20;65.80;;;;;;2251758;55;21027;-84
2021/08/19 02:33:04;;;;;;;1.08;0.40;;;21.20;65.80;;;;;;2479839;55;20920;-85
2021/08/19 02:35:30;;;;;;;1.08;0.45;;;21.20;65.90;;;;;;2459730;55;20941;-84
2021/08/19 02:37:59;;;;;;;1.00;0.35;;;21.20;66.00;;;;;;2462336;55;20956;-85
2021/08/19 02:40:26;;;;;;;1.37;0.30;;;21.20;66.00;;;;;;2485481;55;21024;-86
2021/08/19 02:42:53;;;;;;;2.03;0.40;;;21.20;66.00;;;;;;2491488;55;20919;-85
2021/08/19 02:45:19;;;;;;;0.85;0.40;;;21.20;66.00;;;;;;2240029;55;21405;-85
2021/08/19 02:47:45;;;;;;;0.88;0.40;;;21.20;66.00;;;;;;2237481;55;20948;-85
2021/08/19 02:50:12;;;;;;;0.88;0.50;;;21.20;65.90;;;;;;2262127;55;21029;-86
2021/08/19 02:52:38;;;;;;;1.58;0.57;;;21.20;65.90;;;;;;2252080;55;21048;-85
2021/08/19 02:55:05;;;;;;;1.45;0.50;;;21.20;65.90;;;;;;2270379;55;20953;-86
2021/08/19 02:57:32;;;;;;;1.98;0.57;;;21.20;65.90;;;;;;2462633;55;21076;-84
2021/08/19 02:59:59;;;;;;;2.25;0.77;;;21.20;65.90;;;;;;2266167;55;20938;-85
2021/08/19 03:02:25;;;;;;;1.30;0.52;;;21.10;65.80;;;;;;2490654;55;20999;-86
2021/08/19 03:04:52;;;;;;;1.02;0.50;;;21.10;65.90;;;;;;2239383;55;20999;-86
2021/08/19 03:07:18;;;;;;;1.23;0.57;;;21.10;65.90;;;;;;2491835;55;20952;-85
2021/08/19 03:09:44;;;;;;;1.20;0.60;;;21.10;66.00;;;;;;2490911;54;21276;-84
2021/08/19 03:12:11;;;;;;;1.35;0.50;;;21.10;66.00;;;;;;2263393;55;20998;-84
2021/08/19 03:14:37;;;;;;;1.35;0.50;;;21.10;66.10;;;;;;2462290;55;20964;-84
2021/08/19 03:17:04;;;;;;;1.45;0.60;;;21.10;66.10;;;;;;2459501;55;20961;-86
2021/08/19 03:19:30;;;;;;;1.25;0.50;;;21.10;66.20;;;;;;2459057;55;21119;-83
2021/08/19 03:21:56;;;;;;;1.40;0.60;;;21.10;66.20;;;;;;2459757;55;21811;-85
2021/08/19 03:24:22;;;;;;;1.65;0.70;;;21.10;66.20;;;;;;2237523;55;20949;-85
2021/08/19 03:26:49;;;;;;;1.98;0.70;;;21.10;66.30;;;;;;2237389;55;21255;-86
2021/08/19 03:29:15;;;;;;;1.90;0.90;;;21.20;66.40;;;;;;2265704;55;20982;-87
2021/08/19 03:31:41;;;;;;;2.35;0.80;;;21.10;66.30;;;;;;2459316;55;20932;-86
2021/08/19 03:34:07;;;;;;;1.90;0.80;;;21.10;66.30;;;;;;2237335;55;21127;-85
2021/08/19 03:36:34;;;;;;;1.77;0.73;;;21.10;66.30;;;;;;2237293;55;20985;-84
2021/08/19 03:39:00;;;;;;;1.50;0.57;;;21.10;66.30;;;;;;2266067;55;21062;-86
2021/08/19 03:41:27;;;;;;;2.87;0.60;;;21.20;66.40;;;;;;2458563;55;21024;-85
2021/08/19 03:43:53;;;;;;;0.98;0.40;;;21.10;66.30;;;;;;2237730;55;21019;-85
2021/08/19 03:46:20;;;;;;;1.30;0.52;;;21.20;66.40;;;;;;2237074;55;21005;-85
2021/08/19 03:48:46;;;;;;;1.15;0.50;;;21.10;66.30;;;;;;2459874;55;20961;-86
2021/08/19 03:51:13;;;;;;;1.20;0.60;;;21.20;66.40;;;;;;2459103;55;21092;-85
2021/08/19 03:53:39;;;;;;;1.20;0.55;;;21.20;66.40;;;;;;2237297;55;20948;-85
2021/08/19 03:56:05;;;;;;;0.82;0.43;;;21.20;66.40;;;;;;2265074;55;20962;-84
2021/08/19 03:58:32;;;;;;;1.08;0.50;;;21.20;66.40;;;;;;2483917;55;21031;-84
2021/08/19 04:01:00;;;;;;;2.40;0.60;;;21.20;66.30;;;;;;2483996;55;21086;-85
2021/08/19 04:03:26;;;;;;;2.60;1.05;;;21.10;66.30;;;;;;2249780;55;20998;-85
2021/08/19 04:05:53;;;;;;;1.33;0.60;;;21.20;66.40;;;;;;2490776;55;20959;-83
2021/08/19 04:08:21;;;;;;;1.67;0.50;;;21.20;66.30;;;;;;2255964;55;20929;-82
2021/08/19 04:10:48;;;;;;;2.25;0.70;;;21.20;66.30;;;;;;2469903;55;21003;-80
2021/08/19 04:13:14;;;;;;;1.70;0.70;;;21.20;66.30;;;;;;2236945;55;20940;-83
2021/08/19 04:15:40;;;;;;;3.12;0.80;;;21.20;66.30;;;;;;2237206;55;20991;-82
2021/08/19 04:18:07;;;;;;;1.50;0.70;;;21.10;66.10;;;;;;2254598;55;21006;-82
2021/08/19 04:20:33;;;;;;;1.95;0.70;;;21.20;66.20;;;;;;2477285;55;21101;-80
2021/08/19 04:22:59;;;;;;;1.33;0.55;;;21.20;66.30;;;;;;2450270;55;21006;-81
2021/08/19 04:25:26;;;;;;;2.72;0.80;;;21.10;66.20;;;;;;2261006;55;21076;-82
2021/08/19 04:27:52;;;;;;;2.10;0.75;;;21.20;66.30;;;;;;2465523;55;20960;-84
2021/08/19 04:30:18;;;;;;;3.58;0.70;;;21.10;66.20;;;;;;2486361;55;20949;-82
2021/08/19 04:32:45;;;;;;;1.40;0.70;;;21.10;66.30;;;;;;2460243;55;20960;-83
2021/08/19 04:35:11;;;;;;;2.05;1.00;;;21.10;66.20;;;;;;2242302;55;21036;-86
2021/08/19 04:37:37;;;;;;;1.85;0.82;;;21.10;66.20;;;;;;2265789;55;21041;-86
2021/08/19 04:40:04;;;;;;;2.85;0.85;;;21.10;66.30;;;;;;2489191;55;20926;-83
2021/08/19 04:42:30;;;;;;;2.70;1.15;;;21.10;66.30;;;;;;2244552;55;20973;-87
2021/08/19 04:44:57;;;;;;;2.12;1.10;;;21.10;66.30;;;;;;2491182;55;20950;-86
2021/08/19 04:47:23;;;;;;;1.58;0.70;;;21.10;66.30;;;;;;2462336;55;20987;-86
2021/08/19 04:49:49;;;;;;;2.20;1.00;;;21.10;66.40;;;;;;2459502;55;20976;-87
2021/08/19 04:52:15;;;;;;;2.62;1.20;;;21.10;67.10;;;;;;2237780;55;20960;-85
2021/08/19 04:54:42;;;;;;;2.33;0.95;;;21.10;66.30;;;;;;2460469;55;20959;-84
2021/08/19 04:57:08;;;;;;;2.35;1.00;;;21.10;66.30;;;;;;2459712;55;20948;-86
2021/08/19 04:59:34;;;;;;;2.17;0.90;;;21.10;66.30;;;;;;2489314;55;21079;-87
2021/08/19 05:02:01;;;;;;;3.45;0.90;;;21.10;66.30;;;;;;2237818;55;21406;-84
2021/08/19 05:04:28;;;;;;;2.20;0.80;;;21.00;66.20;;;;;;2459154;55;20960;-85
2021/08/19 05:06:54;;;;;;;1.70;0.70;;;21.10;66.40;;;;;;2463709;55;20984;-84
2021/08/19 05:09:20;;;;;;;1.45;0.65;;;21.10;66.40;;;;;;2488319;55;21357;-85
2021/08/19 05:11:47;;;;;;;2.42;0.82;;;21.10;66.50;;;;;;2238881;55;21819;-87
2021/08/19 05:14:13;;;;;;;1.85;0.85;;;21.10;66.50;;;;;;2489336;55;20966;-87
2021/08/19 05:16:40;;;;;;;1.75;0.77;;;21.10;66.50;;;;;;2270501;55;21005;-85
2021/08/19 05:19:06;;;;;;;2.25;1.00;;;21.10;66.40;;;;;;2239129;55;20984;-85
2021/08/19 05:21:32;;;;;;;2.42;0.95;;;21.10;66.40;;;;;;2489594;55;21038;-85
2021/08/19 05:23:59;;;;;;;3.00;1.05;;;21.10;66.30;;;;;;2270558;55;20998;-86
2021/08/19 05:26:25;;;;;;;2.83;0.80;;;21.10;66.30;;;;;;2465023;55;21541;-85
2021/08/19 05:28:51;;;;;;;2.10;0.80;;;21.10;66.40;;;;;;2488939;55;21036;-85
2021/08/19 05:31:17;;;;;;;2.67;0.80;;;21.10;66.50;;;;;;2490031;55;20966;-84
2021/08/19 05:33:44;;;;;;;3.05;0.80;;;21.10;66.50;;;;;;2248196;55;21453;-85
2021/08/19 05:36:10;;;;;;;2.03;0.90;;;21.10;66.60;;;;;;2481821;55;21091;-84
2021/08/19 05:38:37;;;;;;;1.70;0.60;;;21.10;66.60;;;;;;2460221;55;20983;-84
2021/08/19 05:41:04;;;;;;;2.25;0.80;;;21.20;66.80;;;;;;2237963;55;20996;-85
2021/08/19 05:43:30;;;;;;;2.53;1.00;;;21.20;66.80;;;;;;2485959;55;21018;-83
2021/08/19 05:45:57;;;;;;;2.12;0.85;;;21.20;66.70;;;;;;2240545;55;20944;-85
2021/08/19 05:48:24;;;;;;;1.60;0.70;;;21.10;66.60;;;;;;2459322;55;21036;-81
2021/08/19 05:50:50;;;;;;;2.60;0.98;;;21.20;66.80;;;;;;2240047;55;21335;-82
2021/08/19 05:53:16;;;;;;;2.08;0.90;;;21.20;66.70;;;;;;2459655;55;20929;-81
2021/08/19 05:55:42;;;;;;;1.75;0.80;;;21.20;66.70;;;;;;2246828;55;21053;-83
2021/08/19 05:58:20;;;;;;;2.55;0.90;;;21.20;67.40;;;;;;2256459;55;20980;-85
2021/08/19 06:00:47;;;;;;;3.05;0.90;;;21.20;66.50;;;;;;2224328;55;20992;-84
2021/08/19 06:03:15;;;;;;;4.03;0.80;;;21.20;66.70;;;;;;2459685;55;21008;-84
2021/08/19 06:05:41;;;;;;;1.77;0.80;;;21.30;66.80;;;;;;2459308;55;20944;-83
2021/08/19 06:08:07;;;;;;;2.12;0.95;;;21.30;66.70;;;;;;2237791;55;21028;-81
2021/08/19 06:10:34;;;;;;;2.08;0.93;;;21.40;66.90;;;;;;2265902;55;21054;-82
2021/08/19 06:13:00;;;;;;;1.85;0.85;;;21.30;66.70;;;;;;2237401;55;21012;-82
2021/08/19 06:15:27;;;;;;;2.10;0.90;;;21.30;66.70;;;;;;2476656;55;20966;-82
2021/08/19 06:17:53;;;;;;;2.47;1.00;;;21.30;66.70;;;;;;2252559;55;21012;-83
2021/08/19 06:20:19;;;;;;;2.17;0.90;;;21.30;66.80;;;;;;2486989;55;20960;-84
2021/08/19 06:22:45;;;;;;;2.17;0.80;;;21.30;66.80;;;;;;2223960;55;21479;-84
2021/08/19 06:25:12;;;;;;;1.73;0.80;;;21.30;66.80;;;;;;2489404;55;21919;-82
2021/08/19 06:27:38;;;;;;;2.17;0.90;;;21.40;66.90;;;;;;2485489;55;21006;-82
2021/08/19 06:30:05;;;;;;;1.87;0.80;;;21.40;66.80;;;;;;2240130;55;20952;-81
2021/08/19 06:32:32;;;;;;;2.40;0.80;;;21.40;66.90;;;;;;2460093;55;20957;-86
2021/08/19 06:34:58;;;;;;;2.37;1.10;;;21.50;67.00;;;;;;2238806;55;20944;-84
2021/08/19 06:37:24;;;;;;;1.80;0.85;;;21.50;66.80;;;;;;2238939;55;20968;-82
2021/08/19 06:39:50;;;;;;;2.15;1.00;;;21.50;66.70;;;;;;2461817;55;21031;-84
2021/08/19 06:42:18;;;;;;;3.12;1.10;;;21.50;66.60;;;;;;2461913;55;21459;-83
2021/08/19 06:44:44;;;;;;;2.15;0.80;;;21.60;66.70;;;;;;2474342;55;20965;-84
2021/08/19 06:47:10;;;;;;;1.83;0.90;;;21.60;66.80;;;;;;2253178;55;20951;-83
2021/08/19 06:49:39;;;;;;;2.10;0.93;;;21.60;66.80;;;;;;2256642;55;22191;-82
2021/08/19 06:52:06;;;;;;;1.67;0.88;;;21.70;66.90;;;;;;2259728;55;21349;-83
2021/08/19 06:54:32;;;;;;;2.00;0.90;;;21.70;66.80;;;;;;2258859;55;20949;-81
2021/08/19 06:57:01;;;;;;;1.70;0.77;;;21.70;66.70;;;;;;2267964;55;20954;-84
2021/08/19 06:59:28;;;;;;;2.45;1.00;;;21.70;66.70;;;;;;2491268;55;20953;-82
2021/08/19 07:01:54;;;;;;;2.17;0.88;;;21.80;66.70;;;;;;2249301;55;20986;-83
2021/08/19 07:04:21;;;;;;;2.50;1.00;;;21.80;66.60;;;;;;2481144;55;20952;-83
2021/08/19 07:06:47;;;;;;;2.97;1.30;;;21.80;66.60;;;;;;2265597;55;21003;-82
2021/08/19 07:09:14;;;;;;;2.50;1.05;;;21.90;66.50;;;;;;2465177;54;20944;-81
2021/08/19 07:11:41;;;;;;;3.00;1.20;;;21.90;66.30;;;;;;2258270;55;20976;-83
2021/08/19 07:14:09;;;;;;;3.08;1.40;;;21.90;66.20;;;;;;2485165;55;21406;-83
2021/08/19 07:16:35;;;;;;;2.83;1.05;;;21.90;66.10;;;;;;2240992;55;21060;-83
2021/08/19 07:19:02;;;;;;;2.58;1.08;;;22.00;66.20;;;;;;2237632;55;20968;-83
2021/08/19 07:21:31;;;;;;;1.83;0.82;;;22.00;66.30;;;;;;2488924;55;21846;-82
2021/08/19 07:23:57;;;;;;;2.78;1.00;;;22.00;66.40;;;;;;2438811;55;20980;-83
2021/08/19 07:26:24;;;;;;;2.67;1.10;;;22.00;66.40;;;;;;2237181;55;20949;-82
2021/08/19 07:28:51;;;;;;;1.95;0.98;;;22.10;66.40;;;;;;2472163;55;20973;-82
2021/08/19 07:31:17;;;;;;;1.80;0.80;;;22.10;66.40;;;;;;2251458;55;21012;-83
2021/08/19 07:33:43;;;;;;;2.05;0.93;;;22.20;66.60;;;;;;2237334;55;20948;-84
2021/08/19 07:36:11;;;;;;;3.70;0.85;;;22.20;66.60;;;;;;2459345;55;20948;-82
2021/08/19 07:38:40;;;;;;;1.70;0.70;;;22.40;66.70;;;;;;2459340;55;20961;-83
2021/08/19 07:41:07;;;;;;;2.03;0.90;;;22.30;66.60;;;;;;2459157;55;21898;-82
2021/08/19 07:43:33;;;;;;;2.40;1.10;;;22.40;66.60;;;;;;2481900;55;20997;-83
2021/08/19 07:45:59;;;;;;;2.55;1.15;;;22.40;66.40;;;;;;2471062;55;21080;-81
2021/08/19 07:48:26;;;;;;;2.67;1.25;;;22.50;66.30;;;;;;2489588;55;20921;-84
2021/08/19 07:50:52;;;;;;;2.20;0.90;;;22.50;66.20;;;;;;2459011;55;21996;-82
2021/08/19 07:53:19;;;;;;;1.80;0.82;;;22.60;66.20;;;;;;2478168;55;20954;-82
2021/08/19 07:55:45;;;;;;;2.22;1.00;;;22.60;66.20;;;;;;2258798;55;21926;-84
2021/08/19 07:58:11;;;;;;;2.17;1.10;;;22.70;66.20;;;;;;2487661;55;20988;-82
2021/08/19 08:00:38;;;;;;;2.53;1.10;;;22.70;66.20;;;;;;2461649;55;20980;-81
2021/08/19 08:03:04;;;;;;;1.70;0.73;;;22.80;66.10;;;;;;2475335;55;20950;-82
2021/08/19 08:05:33;;;;;;;1.87;0.95;;;22.80;66.10;;;;;;2264475;55;21001;-82
2021/08/19 08:08:02;;;;;;;3.20;1.20;;;22.90;66.10;;;;;;2452984;55;20957;-82
2021/08/19 08:10:30;;;;;;;3.67;1.17;;;22.90;65.80;;;;;;2489785;54;20994;-83
2021/08/19 08:12:58;;;;;;;3.25;1.40;;;23.00;65.80;;;;;;2462934;55;20968;-82
2021/08/19 08:15:25;;;;;;;2.83;1.20;;;23.00;65.80;;;;;;2265251;55;21599;-83
2021/08/19 08:17:51;;;;;;;2.83;0.95;;;23.10;65.90;;;;;;2237039;55;20975;-83
2021/08/19 08:20:17;;;;;;;2.80;1.42;;;23.10;66.10;;;;;;2459088;55;20982;-84
2021/08/19 08:22:45;;;;;;;2.50;1.10;;;23.20;66.30;;;;;;2485172;55;21134;-83
2021/08/19 08:25:12;;;;;;;2.67;1.10;;;23.30;66.30;;;;;;2482717;55;21509;-83
2021/08/19 08:27:59;;;;;;;2.28;0.90;;;23.40;66.10;;;;;;2488609;55;21011;-82
2021/08/19 08:30:27;;;;;;;2.33;0.80;;;23.40;65.30;;;;;;2488972;55;21353;-83
2021/08/19 08:32:53;;;;;;;1.75;0.77;;;23.50;65.80;;;;;;2245348;55;20963;-81
2021/08/19 08:35:20;;;;;;;2.95;0.90;;;23.60;65.90;;;;;;2459332;55;21501;-83
2021/08/19 08:37:46;;;;;;;2.00;0.70;;;23.60;65.80;;;;;;2459294;55;21918;-84
2021/08/19 08:40:15;;;;;;;1.65;0.80;;;23.70;65.70;;;;;;2259998;55;20978;-84
2021/08/19 08:42:41;;;;;;;2.40;0.90;;;23.80;66.50;;;;;;2465090;55;21004;-82
2021/08/19 08:45:08;;;;;;;1.98;0.68;;;23.80;65.50;;;;;;2459812;55;20960;-82
2021/08/19 08:47:34;;;;;;;2.53;0.73;;;23.90;65.50;;;;;;2481008;55;21061;-83
2021/08/19 08:50:02;;;;;;;1.23;0.52;;;23.90;64.90;;;;;;2471882;55;20981;-83
2021/08/19 08:52:28;;;;;;;1.60;0.70;;;24.00;64.70;;;;;;2238055;55;20952;-83
2021/08/19 08:54:56;;;;;;;1.83;0.60;;;24.00;64.70;;;;;;2464043;55;21287;-82
2021/08/19 08:57:22;;;;;;;1.60;0.70;;;24.10;64.70;;;;;;2487748;55;21359;-83
2021/08/19 08:59:49;;;;;;;1.70;0.60;;;24.10;64.50;;;;;;2463574;55;21356;-82
2021/08/19 09:02:18;;;;;;;1.33;0.57;;;24.20;64.40;;;;;;2485453;55;20948;-82
2021/08/19 09:04:44;;;;;;;2.83;0.50;;;24.20;64.50;;;;;;2458935;55;21039;-84
2021/08/19 09:07:11;;;;;;;1.45;0.50;;;24.30;64.70;;;;;;2459802;55;20985;-82
2021/08/19 09:09:37;;;;;;;2.25;0.57;;;24.30;64.70;;;;;;2473541;55;20911;-83
2021/08/19 09:12:05;;;;;;;1.10;0.50;;;24.40;64.90;;;;;;2489154;55;20994;-84
2021/08/19 09:14:32;;;;;;;2.00;0.80;;;24.40;64.70;;;;;;2479470;55;20956;-83
2021/08/19 09:16:58;;;;;;;1.40;0.60;;;24.50;64.70;;;;;;2266489;55;20960;-82
2021/08/19 09:19:29;;;;;;;1.52;0.60;;;24.60;64.20;;;;;;2459894;55;21040;-82
2021/08/19 09:21:58;;;;;;;2.00;0.70;;;24.70;63.80;;;;;;2459892;55;20952;-82
2021/08/19 09:24:28;;;;;;;2.10;0.77;;;24.70;64.00;;;;;;2237832;55;20981;-82
2021/08/19 09:26:55;;;;;;;2.25;0.77;;;24.80;63.60;;;;;;2459515;55;20996;-83
2021/08/19 09:29:31;;;;;;;1.35;0.65;;;24.80;63.60;;;;;;2459927;55;20948;-84
2021/08/19 09:32:26;;;;;;;2.20;0.90;;;24.80;62.40;;;;;;2460084;55;20977;-81
2021/08/19 09:34:53;;;;;;;1.75;0.60;;;24.90;62.50;;;;;;2484235;55;20984;-82
2021/08/19 09:37:20;;;;;;;2.10;0.62;;;25.00;63.20;;;;;;2470150;55;20964;-82
2021/08/19 09:39:56;;;;;;;3.00;1.30;;;25.00;63.00;;;;;;2476239;55;20955;-84
2021/08/19 09:42:43;;;;;;;2.00;0.82;;;25.10;61.90;;;;;;2466654;55;21099;-83
2021/08/19 09:45:20;;;;;;;3.53;1.10;;;25.10;62.30;;;;;;2459806;55;20952;-81
2021/08/19 09:47:46;;;;;;;2.00;0.75;;;25.10;61.70;;;;;;2459749;55;20991;-83
2021/08/19 09:50:15;;;;;;;2.30;0.80;;;25.20;62.40;;;;;;2459886;55;21036;-83
2021/08/19 09:52:42;;;;;;;1.27;0.55;;;25.10;61.90;;;;;;2480112;55;20998;-82
2021/08/19 09:55:22;;;;;;;1.52;0.60;;;25.20;61.90;;;;;;2469657;55;21436;-82
2021/08/19 09:57:48;;;;;;;5.25;0.70;;;25.20;60.80;;;;;;2247934;55;21822;-83
2021/08/19 10:00:57;;;;;;;1.10;0.50;;;25.20;61.30;;;;;;2238376;55;21335;-82
2021/08/19 10:03:24;;;;;;;1.70;0.65;;;25.20;60.20;;;;;;2240454;55;21083;-82
2021/08/19 10:05:51;;;;;;;1.33;0.60;;;25.20;61.50;;;;;;2488300;55;21446;-83
2021/08/19 10:08:18;;;;;;;1.40;0.57;;;25.20;61.80;;;;;;2237350;55;21020;-82
2021/08/19 10:10:45;;;;;;;1.62;0.60;;;25.20;61.80;;;;;;2263748;55;20982;-83
2021/08/19 10:13:12;;;;;;;2.65;0.90;;;25.20;61.50;;;;;;2461286;55;21012;-82
2021/08/19 10:15:40;;;;;;;1.50;0.60;;;25.20;61.40;;;;;;2459612;55;21004;-83
2021/08/19 10:18:07;;;;;;;1.85;0.80;;;25.30;61.30;;;;;;2265527;55;21547;-83
2021/08/19 10:20:39;;;;;;;1.40;0.65;;;25.30;61.40;;;;;;2459583;55;20988;-82
2021/08/19 10:23:05;;;;;;;1.70;0.70;;;25.40;61.20;;;;;;2237575;55;20967;-84
2021/08/19 10:25:31;;;;;;;1.75;0.80;;;25.40;61.40;;;;;;2270019;55;21392;-83
2021/08/19 10:29:39;;;;;;;3.92;0.95;;;25.50;61.30;;;;;;2266479;55;20998;-84
2021/08/19 10:32:21;;;;;;;2.30;0.70;;;25.60;60.50;;;;;;2237484;55;20940;-82
2021/08/19 10:35:14;;;;;;;1.50;0.75;;;25.60;60.10;;;;;;2246625;55;21061;-81
2021/08/19 10:38:23;;;;;;;1.75;0.57;;;25.70;60.20;;;;;;2476510;55;20992;-81
2021/08/19 10:40:59;;;;;;;1.27;0.50;;;25.70;59.90;;;;;;2237003;55;20987;-79
2021/08/19 10:43:44;;;;;;;1.40;0.70;;;25.70;60.90;;;;;;2235829;55;21016;-80
2021/08/19 10:46:12;;;;;;;1.48;0.62;;;25.70;59.50;;;;;;2235606;55;20984;-79
2021/08/19 10:48:49;;;;;;;1.50;0.60;;;25.70;60.50;;;;;;2235023;55;21753;-80
2021/08/19 10:51:16;;;;;;;1.50;0.70;;;25.70;60.00;;;;;;2457982;55;21084;-80
2021/08/19 10:53:42;;;;;;;1.48;0.60;;;25.70;60.20;;;;;;2234737;55;20980;-79
2021/08/19 10:56:09;;;;;;;2.25;0.77;;;25.70;59.90;;;;;;2457982;55;21479;-78
2021/08/19 10:58:36;;;;;;;1.42;0.60;;;25.70;59.80;;;;;;2235054;55;21063;-79
2021/08/19 11:01:24;;;;;;;2.10;0.80;;;25.70;59.80;;;;;;2468693;55;21053;-79
2021/08/19 11:03:52;;;;;;;1.83;0.70;;;25.70;58.60;;;;;;2472266;55;21290;-79
2021/08/19 11:06:23;;;;;;;1.73;0.70;;;25.70;59.50;;;;;;2458208;55;20957;-80
2021/08/19 11:08:54;;;;;;;1.25;0.57;;;25.70;59.30;;;;;;2235637;55;21032;-80
2021/08/19 11:12:24;;;;;;;1.60;0.60;;;25.70;59.40;;;;;;2436456;55;21019;-79
2021/08/19 11:14:56;;;;;;;1.80;0.70;;;25.60;59.30;;;;;;2436548;55;20988;-78
2021/08/19 11:17:24;;;;;;;1.67;0.70;;;25.70;60.00;;;;;;2436913;55;21414;-78
2021/08/19 11:19:51;;;;;;;1.95;0.82;;;25.70;60.30;;;;;;2456978;55;21012;-80
2021/08/19 11:22:20;;;;;;;1.92;0.68;;;25.80;60.40;;;;;;2457426;55;20960;-79
2021/08/19 11:24:46;;;;;;;1.65;0.77;;;25.90;60.20;;;;;;2485609;55;20981;-77
2021/08/19 11:27:12;;;;;;;1.62;0.75;;;26.00;60.90;;;;;;2459872;55;20956;-78
2021/08/19 11:29:40;;;;;;;2.00;0.80;;;26.10;61.20;;;;;;2235085;55;21308;-79
2021/08/19 11:32:10;;;;;;;1.92;0.70;;;26.30;61.30;;;;;;2458100;55;21296;-80
2021/08/19 11:34:38;;;;;;;2.08;0.80;;;26.40;60.90;;;;;;2457997;55;20956;-79
2021/08/19 11:37:05;;;;;;;1.90;0.75;;;26.60;60.60;;;;;;2258897;55;21038;-80
2021/08/19 11:39:31;;;;;;;1.75;0.68;;;26.70;60.00;;;;;;2240945;55;20940;-79
2021/08/19 11:41:59;;;;;;;2.10;0.60;;;26.70;59.60;;;;;;2468428;55;21517;-83
2021/08/19 11:44:26;;;;;;;1.58;0.70;;;26.80;59.40;;;;;;2238761;55;21015;-83
2021/08/19 11:47:03;;;;;;;2.15;0.75;;;26.80;59.20;;;;;;2459923;55;20956;-82
2021/08/19 11:49:29;;;;;;;2.00;0.80;;;26.80;58.40;;;;;;2459232;55;20996;-83
2021/08/19 11:52:07;;;;;;;1.95;0.70;;;26.80;58.80;;;;;;2459460;55;21537;-82
2021/08/19 11:54:44;;;;;;;1.50;0.70;;;26.80;58.10;;;;;;2458492;55;20960;-83
2021/08/19 11:57:25;;;;;;;1.85;0.80;;;26.80;58.20;;;;;;2460292;55;21008;-82
2021/08/19 12:00:58;;;;;;;2.65;0.70;;;26.80;57.50;;;;;;2459599;55;20980;-82
2021/08/19 12:03:25;;;;;;;2.25;0.80;;;26.80;57.50;;;;;;2224016;55;20980;-82
2021/08/19 12:06:05;;;;;;;2.03;0.70;;;26.70;58.20;;;;;;2459411;55;20936;-83
2021/08/19 12:08:32;;;;;;;2.40;0.90;;;26.70;57.00;;;;;;2263264;55;20974;-83
2021/08/19 12:11:00;;;;;;;1.62;0.57;;;26.70;57.90;;;;;;2466533;55;21513;-82
2021/08/19 12:13:27;;;;;;;3.28;0.90;;;26.70;57.70;;;;;;2223828;55;20972;-84
2021/08/19 12:15:53;;;;;;;1.75;0.60;;;26.60;58.00;;;;;;2271449;55;21036;-83
2021/08/19 12:18:21;;;;;;;2.15;0.70;;;26.60;58.00;;;;;;2246376;55;20935;-83
2021/08/19 12:20:49;;;;;;;1.90;0.80;;;26.60;58.00;;;;;;2483467;54;21056;-83
2021/08/19 12:23:20;;;;;;;2.20;1.12;;;26.50;57.90;;;;;;2245923;55;21032;-83
2021/08/19 12:25:46;;;;;;;1.70;0.70;;;26.50;57.90;;;;;;2487544;55;20993;-83
2021/08/19 12:28:13;;;;;;;1.92;0.60;;;26.50;58.00;;;;;;2492584;55;20970;-82
2021/08/19 12:30:59;;;;;;;1.60;0.70;;;26.50;58.10;;;;;;2238470;55;21490;-83
2021/08/19 12:33:37;;;;;;;2.28;0.85;;;26.50;57.20;;;;;;2474412;55;20990;-82
2021/08/19 12:36:17;;;;;;;2.17;0.80;;;26.50;57.40;;;;;;2450828;55;21474;-82
2021/08/19 12:38:44;;;;;;;2.28;0.80;;;26.50;57.50;;;;;;2460174;55;21111;-82
2021/08/19 12:41:18;;;;;;;1.52;0.65;;;26.50;58.10;;;;;;2460359;55;21452;-82
2021/08/19 12:43:46;;;;;;;2.15;0.70;;;26.50;58.10;;;;;;2237970;55;20964;-83
2021/08/19 12:46:14;;;;;;;1.17;0.47;;;26.60;58.00;;;;;;2460708;55;21020;-82
2021/08/19 12:48:41;;;;;;;1.40;0.60;;;26.60;58.10;;;;;;2460034;55;21016;-82
2021/08/19 12:51:24;;;;;;;1.50;0.70;;;26.60;58.00;;;;;;2459730;55;21003;-82
2021/08/19 12:54:09;;;;;;;1.65;0.70;;;26.60;57.30;;;;;;2460197;55;21079;-82
2021/08/19 12:56:39;;;;;;;1.62;0.70;;;26.70;57.10;;;;;;2440015;55;20997;-83